sensor_id;sensor_type;location;lat;lon;timestamp;P1;durP1;ratioP1;P2;durP2;ratioP2
11572;SDS011;5842;52.426;4.886;2023-06-04T04:32:29;6.43;;;4.43;;
11572;SDS011;5842;52.426;4.886;2023-06-04T04:34:56;7.67;;;4.80;;
11572;SDS011;5842;52.426;4.886;2023-06-04T04:37:25;7.20;;;4.43;;
11572;SDS011;5842;52.426;4.886;2023-06-04T04:39:53;6.53;;;4.20;;
11572;SDS011;5842;52.426;4.886;2023-06-04T04:42:20;7.37;;;4.60;;
11572;SDS011;5842;52.426;4.886;2023-06-04T04:44:49;6.37;;;4.40;;
11572;SDS011;5842;52.426;4.886;2023-06-04T04:47:16;6.57;;;4.40;;
11572;SDS011;5842;52.426;4.886;2023-06-04T04:49:45;6.13;;;4.10;;
11572;SDS011;5842;52.426;4.886;2023-06-04T04:52:14;7.00;;;3.83;;
11572;SDS011;5842;52.426;4.886;2023-06-04T04:54:41;9.33;;;4.40;;
11572;SDS011;5842;52.426;4.886;2023-06-04T04:57:08;8.03;;;4.13;;
11572;SDS011;5842;52.426;4.886;2023-06-04T04:59:36;6.33;;;4.10;;
11572;SDS011;5842;52.426;4.886;2023-06-04T05:02:03;7.45;;;4.10;;
11572;SDS011;5842;52.426;4.886;2023-06-04T05:04:31;6.20;;;4.20;;
11572;SDS011;5842;52.426;4.886;2023-06-04T05:06:59;7.53;;;4.03;;
11572;SDS011;5842;52.426;4.886;2023-06-04T05:09:27;7.27;;;4.20;;
11572;SDS011;5842;52.426;4.886;2023-06-04T05:11:54;7.40;;;3.70;;
11572;SDS011;5842;52.426;4.886;2023-06-04T09:50:38;3.20;;;1.95;;
11572;SDS011;5842;52.426;4.886;2023-06-04T09:53:12;3.00;;;1.90;;
11572;SDS011;5842;52.426;4.886;2023-06-04T09:55:40;2.65;;;1.70;;
11572;SDS011;5842;52.426;4.886;2023-06-04T09:58:08;2.72;;;1.90;;
11572;SDS011;5842;52.426;4.886;2023-06-04T10:00:37;3.63;;;1.80;;
11572;SDS011;5842;52.426;4.886;2023-06-04T10:03:06;3.60;;;2.00;;
11572;SDS011;5842;52.426;4.886;2023-06-04T10:05:36;3.25;;;1.65;;
11572;SDS011;5842;52.426;4.886;2023-06-04T10:08:05;4.03;;;1.83;;
11572;SDS011;5842;52.426;4.886;2023-06-04T10:10:34;3.88;;;1.90;;
11572;SDS011;5842;52.426;4.886;2023-06-04T10:13:03;3.25;;;1.83;;
11572;SDS011;5842;52.426;4.886;2023-06-04T10:15:32;3.17;;;2.03;;
11572;SDS011;5842;52.426;4.886;2023-06-04T10:18:02;4.07;;;2.30;;
11572;SDS011;5842;52.426;4.886;2023-06-04T10:20:30;4.60;;;2.15;;
11572;SDS011;5842;52.426;4.886;2023-06-04T10:22:57;4.77;;;2.33;;
11572;SDS011;5842;52.426;4.886;2023-06-04T10:25:27;3.15;;;1.80;;
11572;SDS011;5842;52.426;4.886;2023-06-04T10:27:55;3.90;;;2.20;;
11572;SDS011;5842;52.426;4.886;2023-06-04T10:30:23;3.93;;;2.50;;
11572;SDS011;5842;52.426;4.886;2023-06-04T10:32:51;2.67;;;2.17;;
11572;SDS011;5842;52.426;4.886;2023-06-04T10:35:28;3.60;;;2.17;;
11572;SDS011;5842;52.426;4.886;2023-06-04T10:38:03;4.67;;;2.30;;
11572;SDS011;5842;52.426;4.886;2023-06-04T10:40:33;4.88;;;2.38;;
11572;SDS011;5842;52.426;4.886;2023-06-04T10:43:04;4.07;;;2.40;;
11572;SDS011;5842;52.426;4.886;2023-06-04T10:45:32;4.13;;;2.30;;
11572;SDS011;5842;52.426;4.886;2023-06-04T10:48:00;3.80;;;2.47;;
11572;SDS011;5842;52.426;4.886;2023-06-04T10:50:31;3.03;;;2.70;;
11572;SDS011;5842;52.426;4.886;2023-06-04T10:52:58;3.90;;;2.43;;
11572;SDS011;5842;52.426;4.886;2023-06-04T10:55:28;4.57;;;2.03;;
11572;SDS011;5842;52.426;4.886;2023-06-04T10:57:59;3.07;;;2.20;;
11572;SDS011;5842;52.426;4.886;2023-06-04T11:00:36;3.30;;;2.10;;
11572;SDS011;5842;52.426;4.886;2023-06-04T11:03:04;4.65;;;2.17;;
11572;SDS011;5842;52.426;4.886;2023-06-04T11:05:33;4.90;;;2.00;;
11572;SDS011;5842;52.426;4.886;2023-06-04T11:08:01;2.87;;;1.80;;
11572;SDS011;5842;52.426;4.886;2023-06-04T11:10:31;3.13;;;2.07;;
11572;SDS011;5842;52.426;4.886;2023-06-04T11:13:00;3.30;;;2.70;;
11572;SDS011;5842;52.426;4.886;2023-06-04T11:15:36;3.73;;;2.40;;
11572;SDS011;5842;52.426;4.886;2023-06-04T11:18:04;4.97;;;2.30;;
11572;SDS011;5842;52.426;4.886;2023-06-04T11:20:31;3.83;;;2.57;;
11572;SDS011;5842;52.426;4.886;2023-06-04T11:22:59;3.35;;;2.10;;
11572;SDS011;5842;52.426;4.886;2023-06-04T11:25:28;4.90;;;2.40;;
11572;SDS011;5842;52.426;4.886;2023-06-04T11:28:00;2.90;;;2.03;;
11572;SDS011;5842;52.426;4.886;2023-06-04T11:30:27;3.92;;;2.50;;
11572;SDS011;5842;52.426;4.886;2023-06-04T11:33:02;5.35;;;2.75;;
11572;SDS011;5842;52.426;4.886;2023-06-04T11:35:29;3.37;;;2.10;;
11572;SDS011;5842;52.426;4.886;2023-06-04T11:37:58;4.30;;;2.53;;
11572;SDS011;5842;52.426;4.886;2023-06-04T11:40:26;5.35;;;2.53;;
11572;SDS011;5842;52.426;4.886;2023-06-04T11:42:56;4.55;;;2.38;;
11572;SDS011;5842;52.426;4.886;2023-06-04T11:45:25;2.85;;;2.30;;
11572;SDS011;5842;52.426;4.886;2023-06-04T11:47:55;4.78;;;2.78;;
11572;SDS011;5842;52.426;4.886;2023-06-04T11:50:23;6.28;;;2.50;;
11572;SDS011;5842;52.426;4.886;2023-06-04T11:52:53;4.90;;;2.70;;
11572;SDS011;5842;52.426;4.886;2023-06-04T11:55:20;3.67;;;2.38;;
11572;SDS011;5842;52.426;4.886;2023-06-04T11:57:48;3.00;;;2.20;;
11572;SDS011;5842;52.426;4.886;2023-06-04T12:00:16;5.07;;;2.30;;
11572;SDS011;5842;52.426;4.886;2023-06-04T12:02:52;4.72;;;2.60;;
11572;SDS011;5842;52.426;4.886;2023-06-04T12:05:20;4.03;;;2.47;;
11572;SDS011;5842;52.426;4.886;2023-06-04T12:07:48;4.97;;;2.35;;
11572;SDS011;5842;52.426;4.886;2023-06-04T12:10:16;4.00;;;2.78;;
11572;SDS011;5842;52.426;4.886;2023-06-04T12:12:53;3.28;;;2.25;;
11572;SDS011;5842;52.426;4.886;2023-06-04T12:15:21;5.60;;;2.80;;
11572;SDS011;5842;52.426;4.886;2023-06-04T12:17:49;6.00;;;2.93;;
11572;SDS011;5842;52.426;4.886;2023-06-04T12:20:18;6.27;;;2.73;;
11572;SDS011;5842;52.426;4.886;2023-06-04T12:22:45;4.37;;;2.57;;
11572;SDS011;5842;52.426;4.886;2023-06-04T12:25:23;4.13;;;2.20;;
11572;SDS011;5842;52.426;4.886;2023-06-04T12:27:51;5.75;;;2.70;;
11572;SDS011;5842;52.426;4.886;2023-06-04T12:30:18;5.30;;;2.93;;
11572;SDS011;5842;52.426;4.886;2023-06-04T12:32:45;4.85;;;2.70;;
11572;SDS011;5842;52.426;4.886;2023-06-04T12:35:13;6.45;;;2.50;;
11572;SDS011;5842;52.426;4.886;2023-06-04T12:37:42;4.13;;;2.40;;
11572;SDS011;5842;52.426;4.886;2023-06-04T12:40:10;5.97;;;2.37;;
11572;SDS011;5842;52.426;4.886;2023-06-04T12:42:38;4.53;;;2.20;;
11572;SDS011;5842;52.426;4.886;2023-06-04T12:45:09;4.80;;;2.73;;
11572;SDS011;5842;52.426;4.886;2023-06-04T12:47:36;4.97;;;2.80;;
11572;SDS011;5842;52.426;4.886;2023-06-04T12:50:04;4.67;;;2.47;;
11572;SDS011;5842;52.426;4.886;2023-06-04T12:52:32;4.60;;;2.67;;
11572;SDS011;5842;52.426;4.886;2023-06-04T12:55:01;5.17;;;2.40;;
11572;SDS011;5842;52.426;4.886;2023-06-04T12:57:28;3.43;;;2.20;;
11572;SDS011;5842;52.426;4.886;2023-06-04T12:59:55;3.90;;;2.20;;
11572;SDS011;5842;52.426;4.886;2023-06-04T13:02:24;4.60;;;2.13;;
11572;SDS011;5842;52.426;4.886;2023-06-04T13:04:51;4.20;;;2.20;;
11572;SDS011;5842;52.426;4.886;2023-06-04T13:07:21;3.83;;;2.17;;
11572;SDS011;5842;52.426;4.886;2023-06-04T13:09:48;3.57;;;2.00;;
11572;SDS011;5842;52.426;4.886;2023-06-04T13:12:17;4.07;;;2.17;;
11572;SDS011;5842;52.426;4.886;2023-06-04T13:14:45;3.00;;;2.23;;
11572;SDS011;5842;52.426;4.886;2023-06-04T13:17:12;4.32;;;2.08;;
11572;SDS011;5842;52.426;4.886;2023-06-04T13:19:40;3.42;;;1.90;;
11572;SDS011;5842;52.426;4.886;2023-06-04T13:22:07;6.20;;;2.37;;
11572;SDS011;5842;52.426;4.886;2023-06-04T13:24:35;5.83;;;1.80;;
11572;SDS011;5842;52.426;4.886;2023-06-04T13:27:03;6.15;;;2.25;;
11572;SDS011;5842;52.426;4.886;2023-06-04T13:29:33;4.63;;;2.30;;
11572;SDS011;5842;52.426;4.886;2023-06-04T13:32:00;2.60;;;2.10;;
11572;SDS011;5842;52.426;4.886;2023-06-04T13:34:28;3.17;;;2.00;;
11572;SDS011;5842;52.426;4.886;2023-06-04T13:36:57;2.38;;;1.90;;
11572;SDS011;5842;52.426;4.886;2023-06-04T13:39:24;2.70;;;1.95;;
11572;SDS011;5842;52.426;4.886;2023-06-04T13:41:51;4.83;;;2.30;;
11572;SDS011;5842;52.426;4.886;2023-06-04T13:44:20;3.20;;;2.07;;
11572;SDS011;5842;52.426;4.886;2023-06-04T13:46:52;3.58;;;2.20;;
11572;SDS011;5842;52.426;4.886;2023-06-04T13:49:20;3.50;;;2.30;;
11572;SDS011;5842;52.426;4.886;2023-06-04T13:51:47;4.47;;;2.20;;
11572;SDS011;5842;52.426;4.886;2023-06-04T13:54:14;4.60;;;2.35;;
11572;SDS011;5842;52.426;4.886;2023-06-04T13:56:44;4.15;;;2.50;;
11572;SDS011;5842;52.426;4.886;2023-06-04T13:59:12;4.35;;;2.17;;
11572;SDS011;5842;52.426;4.886;2023-06-04T14:01:39;3.63;;;2.00;;
11572;SDS011;5842;52.426;4.886;2023-06-04T14:04:09;4.97;;;1.90;;
11572;SDS011;5842;52.426;4.886;2023-06-04T14:06:36;3.97;;;2.10;;
11572;SDS011;5842;52.426;4.886;2023-06-04T14:09:04;2.93;;;2.10;;
11572;SDS011;5842;52.426;4.886;2023-06-04T14:11:42;4.83;;;2.47;;
11572;SDS011;5842;52.426;4.886;2023-06-04T14:14:09;3.87;;;2.20;;
11572;SDS011;5842;52.426;4.886;2023-06-04T14:16:36;3.63;;;2.00;;
11572;SDS011;5842;52.426;4.886;2023-06-04T14:19:04;4.17;;;2.23;;
11572;SDS011;5842;52.426;4.886;2023-06-04T14:21:33;5.50;;;2.47;;
11572;SDS011;5842;52.426;4.886;2023-06-04T14:24:01;3.57;;;2.10;;
11572;SDS011;5842;52.426;4.886;2023-06-04T14:26:28;5.50;;;2.50;;
11572;SDS011;5842;52.426;4.886;2023-06-04T14:28:55;4.67;;;2.40;;
11572;SDS011;5842;52.426;4.886;2023-06-04T14:31:23;3.38;;;2.13;;
11572;SDS011;5842;52.426;4.886;2023-06-04T14:33:50;3.93;;;2.20;;
11572;SDS011;5842;52.426;4.886;2023-06-04T14:36:19;3.50;;;2.20;;
11572;SDS011;5842;52.426;4.886;2023-06-04T14:38:48;4.90;;;2.70;;
11572;SDS011;5842;52.426;4.886;2023-06-04T14:41:16;3.80;;;2.50;;
11572;SDS011;5842;52.426;4.886;2023-06-04T14:43:43;7.43;;;3.10;;
11572;SDS011;5842;52.426;4.886;2023-06-04T14:46:10;7.67;;;3.43;;
11572;SDS011;5842;52.426;4.886;2023-06-04T14:48:38;7.03;;;3.63;;
11572;SDS011;5842;52.426;4.886;2023-06-04T14:51:05;6.17;;;2.33;;
11572;SDS011;5842;52.426;4.886;2023-06-04T14:53:33;4.07;;;2.60;;
11572;SDS011;5842;52.426;4.886;2023-06-04T14:56:08;5.07;;;2.70;;
11572;SDS011;5842;52.426;4.886;2023-06-04T14:58:38;6.07;;;2.40;;
11572;SDS011;5842;52.426;4.886;2023-06-04T15:01:05;3.67;;;2.47;;
11572;SDS011;5842;52.426;4.886;2023-06-04T15:03:35;3.00;;;2.40;;
11572;SDS011;5842;52.426;4.886;2023-06-04T15:06:03;5.00;;;2.50;;
11572;SDS011;5842;52.426;4.886;2023-06-04T15:08:31;3.43;;;2.30;;
11572;SDS011;5842;52.426;4.886;2023-06-04T15:11:00;4.03;;;2.63;;
11572;SDS011;5842;52.426;4.886;2023-06-04T15:13:29;6.90;;;2.70;;
11572;SDS011;5842;52.426;4.886;2023-06-04T15:15:57;5.23;;;2.60;;
11572;SDS011;5842;52.426;4.886;2023-06-04T15:18:24;3.77;;;2.60;;
11572;SDS011;5842;52.426;4.886;2023-06-04T15:20:52;3.47;;;2.30;;
11572;SDS011;5842;52.426;4.886;2023-06-04T15:23:19;3.83;;;2.70;;
11572;SDS011;5842;52.426;4.886;2023-06-04T15:25:47;6.13;;;2.77;;
11572;SDS011;5842;52.426;4.886;2023-06-04T15:28:14;5.07;;;2.57;;
11572;SDS011;5842;52.426;4.886;2023-06-04T15:30:43;4.60;;;2.80;;
11572;SDS011;5842;52.426;4.886;2023-06-04T15:33:13;5.27;;;2.60;;
11572;SDS011;5842;52.426;4.886;2023-06-04T15:35:41;4.60;;;2.40;;
11572;SDS011;5842;52.426;4.886;2023-06-04T15:38:09;4.87;;;2.50;;
11572;SDS011;5842;52.426;4.886;2023-06-04T15:40:36;5.13;;;2.97;;
11572;SDS011;5842;52.426;4.886;2023-06-04T15:43:04;3.77;;;2.60;;
11572;SDS011;5842;52.426;4.886;2023-06-04T15:45:31;5.83;;;2.53;;
11572;SDS011;5842;52.426;4.886;2023-06-04T15:48:00;4.70;;;2.53;;
11572;SDS011;5842;52.426;4.886;2023-06-04T15:50:27;4.50;;;2.70;;
11572;SDS011;5842;52.426;4.886;2023-06-04T15:52:55;7.97;;;3.00;;
11572;SDS011;5842;52.426;4.886;2023-06-04T15:55:22;5.77;;;2.63;;
11572;SDS011;5842;52.426;4.886;2023-06-04T15:57:49;3.83;;;2.50;;
11572;SDS011;5842;52.426;4.886;2023-06-04T16:00:17;3.90;;;2.67;;
11572;SDS011;5842;52.426;4.886;2023-06-04T16:02:44;7.03;;;2.70;;
11572;SDS011;5842;52.426;4.886;2023-06-04T16:05:13;4.73;;;2.70;;
11572;SDS011;5842;52.426;4.886;2023-06-04T16:07:41;4.87;;;2.57;;
11572;SDS011;5842;52.426;4.886;2023-06-04T16:10:08;6.50;;;2.80;;
11572;SDS011;5842;52.426;4.886;2023-06-04T16:12:36;5.70;;;2.80;;
11572;SDS011;5842;52.426;4.886;2023-06-04T16:15:03;6.53;;;2.93;;
11572;SDS011;5842;52.426;4.886;2023-06-04T16:17:31;4.33;;;2.60;;
11572;SDS011;5842;52.426;4.886;2023-06-04T16:19:58;4.57;;;2.93;;
11572;SDS011;5842;52.426;4.886;2023-06-04T16:22:29;4.73;;;2.70;;
11572;SDS011;5842;52.426;4.886;2023-06-04T16:24:56;6.53;;;2.77;;
11572;SDS011;5842;52.426;4.886;2023-06-04T16:27:24;4.80;;;2.73;;
11572;SDS011;5842;52.426;4.886;2023-06-04T16:29:52;5.00;;;3.00;;
11572;SDS011;5842;52.426;4.886;2023-06-04T16:32:19;5.03;;;2.60;;
11572;SDS011;5842;52.426;4.886;2023-06-04T16:34:46;7.67;;;3.10;;
11572;SDS011;5842;52.426;4.886;2023-06-04T16:37:14;5.17;;;3.00;;
11572;SDS011;5842;52.426;4.886;2023-06-04T16:39:43;4.90;;;2.57;;
11572;SDS011;5842;52.426;4.886;2023-06-04T16:42:10;5.73;;;2.43;;
11572;SDS011;5842;52.426;4.886;2023-06-04T16:44:38;4.80;;;2.53;;
11572;SDS011;5842;52.426;4.886;2023-06-04T16:47:05;5.10;;;2.93;;
11572;SDS011;5842;52.426;4.886;2023-06-04T16:49:33;4.70;;;2.67;;
11572;SDS011;5842;52.426;4.886;2023-06-04T16:52:00;5.23;;;2.93;;
11572;SDS011;5842;52.426;4.886;2023-06-04T16:54:29;6.50;;;2.90;;
11572;SDS011;5842;52.426;4.886;2023-06-04T16:56:58;4.30;;;2.50;;
11572;SDS011;5842;52.426;4.886;2023-06-04T16:59:28;8.67;;;2.77;;
11572;SDS011;5842;52.426;4.886;2023-06-04T17:01:57;4.27;;;2.23;;
11572;SDS011;5842;52.426;4.886;2023-06-04T17:04:25;4.40;;;2.70;;
11572;SDS011;5842;52.426;4.886;2023-06-04T17:06:52;7.47;;;2.97;;
11572;SDS011;5842;52.426;4.886;2023-06-04T17:09:21;6.97;;;2.97;;
11572;SDS011;5842;52.426;4.886;2023-06-04T17:11:48;5.80;;;2.80;;
11572;SDS011;5842;52.426;4.886;2023-06-04T17:14:17;4.40;;;2.70;;
11572;SDS011;5842;52.426;4.886;2023-06-04T17:16:45;6.27;;;2.53;;
11572;SDS011;5842;52.426;4.886;2023-06-04T17:19:12;3.87;;;2.30;;
11572;SDS011;5842;52.426;4.886;2023-06-04T17:21:40;4.50;;;2.73;;
11572;SDS011;5842;52.426;4.886;2023-06-04T17:24:07;4.73;;;2.40;;
11572;SDS011;5842;52.426;4.886;2023-06-04T17:26:35;4.17;;;2.77;;
11572;SDS011;5842;52.426;4.886;2023-06-04T17:29:03;4.57;;;2.57;;
11572;SDS011;5842;52.426;4.886;2023-06-04T17:31:32;5.13;;;2.47;;
11572;SDS011;5842;52.426;4.886;2023-06-04T17:33:59;6.10;;;2.83;;
11572;SDS011;5842;52.426;4.886;2023-06-04T17:36:26;5.53;;;2.60;;
11572;SDS011;5842;52.426;4.886;2023-06-04T17:38:55;5.33;;;2.80;;
11572;SDS011;5842;52.426;4.886;2023-06-04T17:41:22;4.97;;;2.60;;
11572;SDS011;5842;52.426;4.886;2023-06-04T17:43:50;4.30;;;2.70;;
11572;SDS011;5842;52.426;4.886;2023-06-04T17:46:17;4.37;;;2.57;;
11572;SDS011;5842;52.426;4.886;2023-06-04T17:48:46;4.80;;;2.90;;
11572;SDS011;5842;52.426;4.886;2023-06-04T17:51:14;5.23;;;3.10;;
11572;SDS011;5842;52.426;4.886;2023-06-04T17:53:41;7.00;;;2.80;;
11572;SDS011;5842;52.426;4.886;2023-06-04T17:56:09;4.80;;;3.00;;
11572;SDS011;5842;52.426;4.886;2023-06-04T17:58:36;3.93;;;2.67;;
11572;SDS011;5842;52.426;4.886;2023-06-04T18:01:03;5.93;;;2.90;;
11572;SDS011;5842;52.426;4.886;2023-06-04T18:03:31;6.10;;;3.00;;
11572;SDS011;5842;52.426;4.886;2023-06-04T18:06:02;4.63;;;2.60;;
11572;SDS011;5842;52.426;4.886;2023-06-04T18:08:29;5.63;;;3.00;;
11572;SDS011;5842;52.426;4.886;2023-06-04T18:10:58;3.83;;;2.77;;
11572;SDS011;5842;52.426;4.886;2023-06-04T18:13:33;5.87;;;3.23;;
11572;SDS011;5842;52.426;4.886;2023-06-04T18:16:01;7.43;;;3.13;;
11572;SDS011;5842;52.426;4.886;2023-06-04T18:18:28;5.03;;;3.00;;
11572;SDS011;5842;52.426;4.886;2023-06-04T18:20:55;5.00;;;2.80;;
11572;SDS011;5842;52.426;4.886;2023-06-04T18:23:24;4.67;;;2.90;;
11572;SDS011;5842;52.426;4.886;2023-06-04T18:25:52;5.70;;;3.00;;
11572;SDS011;5842;52.426;4.886;2023-06-04T18:28:19;5.47;;;2.83;;
11572;SDS011;5842;52.426;4.886;2023-06-04T18:30:47;5.43;;;3.03;;
11572;SDS011;5842;52.426;4.886;2023-06-04T18:33:14;5.20;;;2.97;;
11572;SDS011;5842;52.426;4.886;2023-06-04T18:35:41;4.30;;;3.00;;
11572;SDS011;5842;52.426;4.886;2023-06-04T18:38:09;4.53;;;3.37;;
11572;SDS011;5842;52.426;4.886;2023-06-04T18:40:38;8.37;;;3.30;;
11572;SDS011;5842;52.426;4.886;2023-06-04T18:43:05;6.13;;;3.50;;
11572;SDS011;5842;52.426;4.886;2023-06-04T18:45:33;5.07;;;3.10;;
11572;SDS011;5842;52.426;4.886;2023-06-04T18:48:01;6.53;;;3.37;;
11572;SDS011;5842;52.426;4.886;2023-06-04T18:50:28;6.43;;;3.60;;
11572;SDS011;5842;52.426;4.886;2023-06-04T18:52:56;7.23;;;3.50;;
11572;SDS011;5842;52.426;4.886;2023-06-04T18:55:24;6.13;;;3.60;;
11572;SDS011;5842;52.426;4.886;2023-06-04T18:57:53;4.03;;;3.60;;
11572;SDS011;5842;52.426;4.886;2023-06-04T19:00:21;8.80;;;3.47;;
11572;SDS011;5842;52.426;4.886;2023-06-04T19:02:48;5.57;;;3.60;;
11572;SDS011;5842;52.426;4.886;2023-06-04T19:05:16;6.30;;;3.70;;
11572;SDS011;5842;52.426;4.886;2023-06-04T19:07:43;5.80;;;3.40;;
11572;SDS011;5842;52.426;4.886;2023-06-04T19:10:11;6.47;;;3.97;;
11572;SDS011;5842;52.426;4.886;2023-06-04T19:12:38;5.40;;;3.73;;
11572;SDS011;5842;52.426;4.886;2023-06-04T19:15:09;7.50;;;4.13;;
11572;SDS011;5842;52.426;4.886;2023-06-04T19:17:40;5.03;;;3.30;;
11572;SDS011;5842;52.426;4.886;2023-06-04T19:27:29;6.60;;;4.00;;
11572;SDS011;5842;52.426;4.886;2023-06-04T19:29:56;7.53;;;3.97;;
11572;SDS011;5842;52.426;4.886;2023-06-04T19:32:28;5.60;;;3.70;;
11572;SDS011;5842;52.426;4.886;2023-06-04T19:34:55;6.00;;;3.50;;
11572;SDS011;5842;52.426;4.886;2023-06-04T19:37:22;6.70;;;3.90;;
